createdAt,value
2018-05-05T00:01:44.099Z,11.80
2018-05-05T00:04:11.631Z,11.70
2018-05-05T00:06:39.087Z,11.70
2018-05-05T00:09:06.536Z,11.60
2018-05-05T00:11:33.966Z,11.60
2018-05-05T00:14:01.399Z,11.50
2018-05-05T00:16:29.658Z,11.50
2018-05-05T00:18:57.097Z,11.50
2018-05-05T00:21:24.539Z,11.50
2018-05-05T00:23:51.981Z,11.40
2018-05-05T00:26:19.409Z,11.30
2018-05-05T00:28:47.617Z,11.20
2018-05-05T00:31:15.147Z,11.20
2018-05-05T00:33:42.598Z,11.10
2018-05-05T00:36:10.028Z,11.10
2018-05-05T00:38:37.475Z,11.00
2018-05-05T00:41:04.954Z,10.90
2018-05-05T00:43:32.419Z,10.80
2018-05-05T00:45:59.866Z,10.70
2018-05-05T00:48:27.323Z,10.70
2018-05-05T00:50:54.780Z,10.70
2018-05-05T00:53:22.222Z,10.70
2018-05-05T00:55:49.711Z,10.60
2018-05-05T00:58:17.918Z,10.60
2018-05-05T01:00:45.393Z,10.60
2018-05-05T01:03:12.863Z,10.60
2018-05-05T01:05:40.307Z,10.50
2018-05-05T01:08:07.869Z,10.50
2018-05-05T01:10:35.308Z,10.50
2018-05-05T01:13:02.775Z,10.50
2018-05-05T01:15:30.223Z,10.40
2018-05-05T01:17:57.650Z,10.40
2018-05-05T01:20:25.871Z,10.20
2018-05-05T01:22:53.347Z,10.20
2018-05-05T01:25:26.522Z,10.20
2018-05-05T01:27:53.958Z,10.10
2018-05-05T01:30:21.431Z,10.10
2018-05-05T01:32:48.871Z,10.00
2018-05-05T01:35:16.311Z,10.00
2018-05-05T01:37:43.856Z,10.00
2018-05-05T01:40:12.082Z,9.90
2018-05-05T01:42:40.311Z,9.90
2018-05-05T01:45:07.745Z,9.90
2018-05-05T01:47:35.174Z,9.80
2018-05-05T01:50:03.395Z,9.60
2018-05-05T01:52:30.841Z,9.60
2018-05-05T01:54:58.259Z,9.60
2018-05-05T01:57:26.484Z,9.50
2018-05-05T01:59:53.927Z,9.50
2018-05-05T02:02:21.349Z,9.40
2018-05-05T02:04:49.568Z,9.30
2018-05-05T02:07:16.994Z,9.30
2018-05-05T02:09:44.438Z,9.30
2018-05-05T02:12:12.665Z,9.30
2018-05-05T02:14:40.083Z,9.30
2018-05-05T02:17:07.512Z,9.30
2018-05-05T02:19:34.947Z,9.30
2018-05-05T02:22:02.506Z,9.20
2018-05-05T02:24:30.064Z,9.20
2018-05-05T02:26:57.495Z,9.20
2018-05-05T02:29:24.932Z,9.10
2018-05-05T02:31:52.353Z,9.10
2018-05-05T02:34:19.811Z,9.10
2018-05-05T02:36:47.255Z,9.00
2018-05-05T02:39:14.708Z,9.00
2018-05-05T02:41:42.332Z,8.90
2018-05-05T02:44:09.685Z,8.80
2018-05-05T02:46:37.120Z,8.80
2018-05-05T02:49:04.562Z,8.70
2018-05-05T02:51:31.995Z,8.60
2018-05-05T02:53:59.424Z,8.50
2018-05-05T02:56:26.868Z,8.40
2018-05-05T02:58:54.360Z,8.40
2018-05-05T03:01:21.791Z,8.40
2018-05-05T03:03:49.251Z,8.40
2018-05-05T03:06:16.673Z,8.40
2018-05-05T03:08:44.880Z,8.40
2018-05-05T03:11:12.354Z,8.30
2018-05-05T03:13:39.815Z,8.30
2018-05-05T03:16:07.255Z,8.30
2018-05-05T03:18:34.725Z,8.20
2018-05-05T03:21:02.168Z,8.10
2018-05-05T03:23:29.599Z,8.10
2018-05-05T03:25:57.800Z,8.00
2018-05-05T03:28:25.231Z,8.00
2018-05-05T03:30:53.430Z,8.00
2018-05-05T03:33:20.863Z,8.00
2018-05-05T03:35:48.283Z,8.00
2018-05-05T03:38:15.821Z,8.00
2018-05-05T03:40:43.262Z,8.10
2018-05-05T03:43:10.772Z,8.10
2018-05-05T03:45:39.003Z,8.10
2018-05-05T03:48:06.463Z,8.10
2018-05-05T03:50:33.924Z,8.10
2018-05-05T03:53:01.364Z,8.00
2018-05-05T03:55:28.799Z,8.00
2018-05-05T03:57:56.226Z,7.90
2018-05-05T04:00:35.519Z,7.90
2018-05-05T04:03:14.983Z,7.80
2018-05-05T04:05:45.820Z,7.80
2018-05-05T04:08:13.273Z,7.70
2018-05-05T04:10:40.717Z,7.60
2018-05-05T04:13:08.180Z,7.60
2018-05-05T04:15:35.628Z,7.50
2018-05-05T04:18:03.078Z,7.60
2018-05-05T04:20:30.745Z,7.60
2018-05-05T04:22:58.193Z,7.60
2018-05-05T04:25:25.633Z,7.60
2018-05-05T04:27:53.847Z,7.60
2018-05-05T04:30:21.282Z,7.60
2018-05-05T04:32:48.767Z,7.60
2018-05-05T04:35:16.251Z,7.60
2018-05-05T04:37:43.822Z,7.60
2018-05-05T04:40:11.295Z,7.60
2018-05-05T04:42:38.740Z,7.60
2018-05-05T04:45:06.173Z,7.60
2018-05-05T04:47:34.367Z,7.70
2018-05-05T04:50:01.816Z,7.70
2018-05-05T04:52:29.241Z,7.70
2018-05-05T04:54:56.678Z,7.70
2018-05-05T04:57:24.129Z,7.80
2018-05-05T04:59:51.568Z,7.80
2018-05-05T05:02:19.007Z,7.90
2018-05-05T05:04:46.450Z,8.00
2018-05-05T05:07:13.940Z,8.00
2018-05-05T05:09:41.381Z,8.00
2018-05-05T05:12:08.827Z,8.10
2018-05-05T05:14:36.258Z,8.10
2018-05-05T05:17:03.704Z,8.20
2018-05-05T05:19:31.158Z,8.30
2018-05-05T05:21:58.699Z,8.30
2018-05-05T05:24:26.892Z,8.50
2018-05-05T05:26:54.332Z,8.50
2018-05-05T05:29:22.560Z,8.60
2018-05-05T05:31:49.990Z,8.60
2018-05-05T05:34:17.438Z,8.70
2018-05-05T05:36:44.892Z,8.70
2018-05-05T05:39:12.375Z,8.80
2018-05-05T05:41:39.826Z,8.90
2018-05-05T05:44:07.252Z,8.90
2018-05-05T05:46:35.499Z,9.10
2018-05-05T05:49:02.915Z,9.10
2018-05-05T05:51:30.365Z,9.20
2018-05-05T05:53:57.815Z,9.30
2018-05-05T05:56:25.263Z,9.40
2018-05-05T05:58:52.701Z,9.50
2018-05-05T06:01:20.124Z,9.60
2018-05-05T06:03:47.563Z,9.70
2018-05-05T06:06:15.102Z,9.80
2018-05-05T06:08:42.562Z,9.90
2018-05-05T06:11:10.037Z,10.00
2018-05-05T06:13:37.482Z,10.10
2018-05-05T06:16:04.931Z,10.10
2018-05-05T06:18:32.405Z,10.20
2018-05-05T06:20:59.834Z,10.30
2018-05-05T06:23:28.030Z,10.50
2018-05-05T06:25:55.480Z,10.50
2018-05-05T06:28:22.933Z,10.60
2018-05-05T06:30:51.136Z,10.80
2018-05-05T06:33:18.595Z,10.80
2018-05-05T06:35:46.034Z,10.90
2018-05-05T06:38:13.479Z,11.00
2018-05-05T06:40:41.711Z,11.30
2018-05-05T06:43:09.247Z,11.20
2018-05-05T06:45:36.681Z,11.40
2018-05-05T06:48:04.128Z,11.50
2018-05-05T06:50:32.326Z,11.70
2018-05-05T06:52:59.772Z,11.70
2018-05-05T06:55:27.247Z,11.80
2018-05-05T06:57:54.683Z,11.90
2018-05-05T07:00:22.134Z,12.10
2018-05-05T07:02:50.398Z,12.30
2018-05-05T07:05:17.795Z,12.30
2018-05-05T07:07:45.243Z,12.40
2018-05-05T07:10:12.676Z,12.50
2018-05-05T07:12:40.875Z,12.80
2018-05-05T07:15:08.347Z,12.80
2018-05-05T07:17:35.790Z,12.90
2018-05-05T07:20:03.271Z,13.00
2018-05-05T07:22:30.722Z,13.20
2018-05-05T07:24:58.226Z,13.30
2018-05-05T07:27:25.638Z,13.40
2018-05-05T07:29:53.098Z,13.60
2018-05-05T07:32:20.535Z,13.70
2018-05-05T07:34:47.967Z,13.80
2018-05-05T07:37:16.167Z,14.00
2018-05-05T07:39:43.617Z,14.00
2018-05-05T07:42:11.050Z,14.10
2018-05-05T07:44:39.356Z,14.40
2018-05-05T07:47:06.831Z,14.30
2018-05-05T07:49:34.276Z,14.50
2018-05-05T07:52:01.732Z,14.60
2018-05-05T07:54:29.279Z,14.80
2018-05-05T07:56:56.723Z,14.90
2018-05-05T07:59:24.178Z,15.00
2018-05-05T08:01:52.487Z,15.20
2018-05-05T08:04:20.057Z,15.20
2018-05-05T08:06:47.496Z,15.30
2018-05-05T08:09:14.940Z,15.40
2018-05-05T08:11:42.397Z,15.50
2018-05-05T08:14:09.924Z,15.60
2018-05-05T08:16:37.347Z,15.80
2018-05-05T08:19:06.300Z,16.00
2018-05-05T08:21:33.730Z,16.00
2018-05-05T08:24:01.939Z,16.30
2018-05-05T08:26:29.370Z,16.30
2018-05-05T08:28:56.868Z,16.40
2018-05-05T08:31:24.308Z,16.40
2018-05-05T08:33:51.791Z,16.60
2018-05-05T08:36:19.258Z,16.70
2018-05-05T08:38:46.804Z,16.80
2018-05-05T08:41:14.251Z,16.90
2018-05-05T08:43:41.683Z,17.00
2018-05-05T08:46:09.135Z,17.20
2018-05-05T08:48:36.557Z,17.40
2018-05-05T08:51:04.128Z,17.50
2018-05-05T08:53:31.533Z,17.70
2018-05-05T08:55:59.818Z,17.90
2018-05-05T08:58:27.287Z,17.90
2018-05-05T09:00:54.851Z,18.00
2018-05-05T09:03:22.290Z,18.10
2018-05-05T09:05:49.733Z,18.30
2018-05-05T09:08:17.196Z,18.40
2018-05-05T09:10:44.671Z,18.40
2018-05-05T09:13:12.119Z,18.50
2018-05-05T09:15:39.562Z,18.60
2018-05-05T09:18:07.026Z,18.60
2018-05-05T09:20:34.458Z,18.70
2018-05-05T09:23:01.931Z,18.80
2018-05-05T09:25:29.366Z,18.90
2018-05-05T09:27:56.873Z,19.00
2018-05-05T09:30:24.265Z,19.10
2018-05-05T09:32:51.709Z,19.30
2018-05-05T09:35:19.193Z,19.30
2018-05-05T09:37:46.759Z,19.40
2018-05-05T09:40:14.215Z,19.50
2018-05-05T09:42:41.715Z,19.60
2018-05-05T09:45:09.152Z,19.70
2018-05-05T09:47:36.608Z,19.70
2018-05-05T09:50:04.045Z,19.90
2018-05-05T09:52:31.483Z,20.00
2018-05-05T09:54:58.926Z,20.00
2018-05-05T09:57:26.360Z,20.00
2018-05-05T09:59:54.588Z,20.10
2018-05-05T10:02:22.038Z,20.10
2018-05-05T10:04:49.515Z,20.10
2018-05-05T10:07:17.001Z,20.30
2018-05-05T10:09:44.435Z,20.30
2018-05-05T10:12:11.969Z,20.40
2018-05-05T10:14:39.418Z,20.50
2018-05-05T10:17:06.843Z,20.50
2018-05-05T10:19:35.059Z,20.50
2018-05-05T10:22:02.535Z,20.50
2018-05-05T10:24:30.081Z,20.60
2018-05-05T10:26:57.511Z,20.60
2018-05-05T10:29:24.988Z,20.60
2018-05-05T10:31:52.503Z,20.60
2018-05-05T10:34:19.923Z,20.60
2018-05-05T10:36:47.465Z,20.70
2018-05-05T10:39:14.902Z,20.90
2018-05-05T10:41:42.331Z,21.00
2018-05-05T10:44:10.619Z,21.20
2018-05-05T10:46:38.816Z,21.30
2018-05-05T10:49:06.288Z,21.20
2018-05-05T10:51:33.739Z,21.30
2018-05-05T10:54:01.212Z,21.30
2018-05-05T10:56:28.646Z,21.30
2018-05-05T10:58:56.086Z,21.30
2018-05-05T11:01:23.612Z,21.40
2018-05-05T11:03:52.601Z,21.70
2018-05-05T11:06:20.126Z,21.70
2018-05-05T11:08:47.580Z,21.60
2018-05-05T11:11:15.019Z,21.60
2018-05-05T11:13:42.447Z,21.50
2018-05-05T11:16:10.844Z,21.50
2018-05-05T11:18:38.299Z,21.50
2018-05-05T11:21:06.495Z,21.70
2018-05-05T11:23:33.958Z,21.60
2018-05-05T11:26:01.399Z,21.70
2018-05-05T11:28:28.938Z,21.80
2018-05-05T11:30:56.339Z,21.80
2018-05-05T11:33:23.799Z,21.90
2018-05-05T11:35:51.243Z,22.00
2018-05-05T11:38:18.683Z,22.10
2018-05-05T11:40:46.175Z,22.20
2018-05-05T11:43:13.659Z,22.20
2018-05-05T11:45:41.186Z,22.30
2018-05-05T11:48:08.627Z,22.30
2018-05-05T11:50:36.128Z,22.30
2018-05-05T11:53:03.581Z,22.40
2018-05-05T11:55:30.995Z,22.30
2018-05-05T11:57:58.488Z,22.20
2018-05-05T12:00:25.915Z,22.30
2018-05-05T12:02:53.409Z,22.40
2018-05-05T12:05:21.388Z,22.60
2018-05-05T12:07:48.912Z,22.70
2018-05-05T12:10:16.358Z,22.70
2018-05-05T12:12:43.810Z,22.70
2018-05-05T12:15:11.247Z,22.80
2018-05-05T12:17:38.682Z,23.00
2018-05-05T12:20:06.136Z,23.10
2018-05-05T12:22:33.588Z,23.10
2018-05-05T12:25:01.030Z,23.20
2018-05-05T12:27:28.590Z,23.20
2018-05-05T12:29:56.062Z,23.10
2018-05-05T12:32:23.553Z,23.10
2018-05-05T12:34:50.994Z,23.10
2018-05-05T12:37:19.194Z,23.30
2018-05-05T12:39:46.637Z,23.30
2018-05-05T12:42:14.909Z,23.40
2018-05-05T12:44:42.537Z,23.40
2018-05-05T12:47:09.967Z,23.30
2018-05-05T12:49:37.416Z,23.30
2018-05-05T12:52:04.862Z,23.40
2018-05-05T12:54:32.339Z,23.40
2018-05-05T12:56:59.806Z,23.50
2018-05-05T12:59:27.255Z,23.70
2018-05-05T13:01:54.692Z,23.90
2018-05-05T13:04:22.200Z,23.90
2018-05-05T13:06:49.623Z,23.80
2018-05-05T13:09:17.050Z,23.70
2018-05-05T13:11:44.576Z,23.60
2018-05-05T13:14:12.715Z,23.60
2018-05-05T13:16:40.154Z,23.60
2018-05-05T13:19:07.647Z,23.60
2018-05-05T13:21:35.091Z,23.80
2018-05-05T13:24:02.557Z,24.00
2018-05-05T13:26:30.133Z,23.90
2018-05-05T13:28:57.571Z,23.90
2018-05-05T13:31:25.038Z,24.00
2018-05-05T13:33:52.494Z,24.10
2018-05-05T13:36:20.069Z,24.20
2018-05-05T13:38:47.499Z,24.30
2018-05-05T13:41:14.987Z,24.40
2018-05-05T13:43:42.425Z,24.50
2018-05-05T13:46:09.913Z,24.60
2018-05-05T13:48:37.339Z,24.60
2018-05-05T13:51:04.793Z,24.60
2018-05-05T13:53:32.279Z,24.70
2018-05-05T13:55:59.726Z,24.70
2018-05-05T13:58:27.181Z,24.80
2018-05-05T14:00:54.622Z,24.80
2018-05-05T14:03:22.079Z,24.90
2018-05-05T14:05:49.523Z,25.10
2018-05-05T14:08:16.963Z,25.20
2018-05-05T14:10:44.408Z,25.40
2018-05-05T14:13:11.855Z,25.70
2018-05-05T14:15:40.077Z,25.60
2018-05-05T14:18:07.610Z,25.60
2018-05-05T14:20:35.101Z,25.60
2018-05-05T14:23:02.536Z,25.70
2018-05-05T14:25:29.982Z,25.90
2018-05-05T14:27:57.407Z,26.00
2018-05-05T14:30:25.616Z,26.30
2018-05-05T14:32:53.073Z,26.30
2018-05-05T14:35:20.509Z,26.40
2018-05-05T14:37:48.772Z,26.50
2018-05-05T14:40:16.978Z,26.60
2018-05-05T14:42:44.556Z,26.60
2018-05-05T14:45:12.078Z,26.70
2018-05-05T14:47:39.554Z,26.70
2018-05-05T14:50:06.979Z,26.80
2018-05-05T14:52:35.207Z,26.70
2018-05-05T14:55:02.668Z,26.70
2018-05-05T14:57:30.109Z,26.80
2018-05-05T14:59:57.637Z,26.80
2018-05-05T15:02:25.328Z,27.00
2018-05-05T15:04:52.770Z,27.00
2018-05-05T15:07:20.206Z,27.00
2018-05-05T15:09:48.451Z,27.40
2018-05-05T15:12:15.896Z,27.40
2018-05-05T15:14:43.389Z,27.70
2018-05-05T15:17:10.852Z,27.80
2018-05-05T15:19:38.280Z,27.90
2018-05-05T15:22:05.721Z,28.00
2018-05-05T15:24:33.160Z,28.10
2018-05-05T15:27:00.639Z,28.10
2018-05-05T15:29:28.112Z,28.10
2018-05-05T15:31:55.585Z,28.40
2018-05-05T15:34:23.023Z,28.70
2018-05-05T15:36:50.488Z,28.80
2018-05-05T15:39:18.909Z,28.80
2018-05-05T15:41:47.095Z,29.20
2018-05-05T15:44:14.543Z,29.20
2018-05-05T15:46:42.031Z,29.50
2018-05-05T15:49:09.546Z,29.70
2018-05-05T15:51:36.970Z,29.80
2018-05-05T15:54:04.618Z,29.90
2018-05-05T15:56:32.055Z,30.20
2018-05-05T15:58:59.518Z,30.20
2018-05-05T16:01:27.008Z,30.20
2018-05-05T16:03:54.443Z,30.50
2018-05-05T16:06:21.904Z,30.70
2018-05-05T16:08:49.505Z,30.80
2018-05-05T16:11:17.779Z,30.50
2018-05-05T16:13:45.154Z,30.50
2018-05-05T16:16:12.739Z,30.70
2018-05-05T16:18:40.183Z,31.00
2018-05-05T16:21:07.630Z,31.10
2018-05-05T16:23:35.093Z,31.50
2018-05-05T16:26:03.289Z,31.30
2018-05-05T16:28:30.748Z,31.30
2018-05-05T16:30:58.199Z,31.10
2018-05-05T16:33:25.633Z,30.30
2018-05-05T16:35:53.081Z,29.20
2018-05-05T16:38:21.356Z,27.20
2018-05-05T16:40:48.751Z,27.10
2018-05-05T16:43:16.190Z,26.30
2018-05-05T16:45:43.699Z,25.60
2018-05-05T16:48:11.139Z,25.20
2018-05-05T16:50:38.595Z,24.80
2018-05-05T16:53:06.123Z,24.50
2018-05-05T16:55:33.573Z,24.20
2018-05-05T16:58:01.005Z,24.00
2018-05-05T17:00:29.216Z,23.70
2018-05-05T17:02:56.772Z,23.70
2018-05-05T17:05:24.151Z,23.60
2018-05-05T17:07:51.609Z,23.40
2018-05-05T17:10:19.039Z,23.40
2018-05-05T17:12:46.492Z,23.30
2018-05-05T17:15:13.936Z,23.20
2018-05-05T17:17:42.156Z,23.00
2018-05-05T17:20:09.617Z,23.00
2018-05-05T17:22:37.068Z,23.00
2018-05-05T17:25:04.515Z,22.90
2018-05-05T17:27:31.944Z,22.80
2018-05-05T17:29:59.424Z,22.80
2018-05-05T17:32:27.751Z,22.70
2018-05-05T17:34:55.187Z,22.70
2018-05-05T17:37:22.635Z,22.70
2018-05-05T17:39:50.193Z,22.70
2018-05-05T17:42:17.633Z,22.70
2018-05-05T17:44:45.090Z,22.60
2018-05-05T17:47:12.663Z,22.60
2018-05-05T17:49:40.689Z,22.40
2018-05-05T17:52:08.903Z,22.30
2018-05-05T17:54:36.360Z,22.30
2018-05-05T17:57:03.967Z,22.20
2018-05-05T17:59:31.383Z,22.20
2018-05-05T18:01:58.827Z,22.10
2018-05-05T18:04:26.275Z,22.10
2018-05-05T18:06:53.715Z,22.00
2018-05-05T18:09:21.219Z,21.90
2018-05-05T18:11:48.650Z,21.90
2018-05-05T18:14:16.101Z,21.80
2018-05-05T18:16:43.619Z,21.80
2018-05-05T18:19:11.050Z,21.70
2018-05-05T18:21:38.690Z,21.60
2018-05-05T18:24:06.293Z,21.60
2018-05-05T18:26:33.820Z,21.50
2018-05-05T18:29:01.282Z,21.50
2018-05-05T18:31:28.713Z,21.50
2018-05-05T18:33:56.146Z,21.40
2018-05-05T18:36:24.357Z,21.30
2018-05-05T18:38:51.816Z,21.30
2018-05-05T18:41:19.251Z,21.30
2018-05-05T18:43:47.611Z,21.20
2018-05-05T18:46:15.120Z,21.20
2018-05-05T18:48:44.176Z,21.00
2018-05-05T18:51:11.762Z,21.00
2018-05-05T18:53:39.279Z,20.90
2018-05-05T18:56:06.650Z,20.90
2018-05-05T18:58:34.129Z,20.80
2018-05-05T19:01:01.611Z,20.70
2018-05-05T19:03:29.083Z,20.60
2018-05-05T19:05:56.527Z,20.60
2018-05-05T19:08:24.076Z,20.50
2018-05-05T19:10:51.556Z,20.50
2018-05-05T19:13:19.026Z,20.40
2018-05-05T19:15:46.563Z,20.30
2018-05-05T19:18:13.995Z,20.20
2018-05-05T19:20:41.454Z,20.10
2018-05-05T19:23:08.916Z,20.00
2018-05-05T19:25:36.362Z,20.00
2018-05-05T19:28:03.830Z,19.90
2018-05-05T19:30:31.543Z,19.90
2018-05-05T19:32:59.747Z,19.90
2018-05-05T19:35:27.256Z,19.90
2018-05-05T19:37:54.807Z,19.90
2018-05-05T19:40:22.246Z,19.90
2018-05-05T19:42:49.695Z,19.80
2018-05-05T19:45:17.142Z,19.70
2018-05-05T19:47:44.607Z,19.60
2018-05-05T19:50:12.085Z,19.60
2018-05-05T19:52:39.809Z,19.50
2018-05-05T19:55:07.306Z,19.40
2018-05-05T19:57:34.972Z,19.30
2018-05-05T20:00:02.435Z,19.20
2018-05-05T20:02:30.550Z,19.20
2018-05-05T20:04:59.881Z,19.00
2018-05-05T20:07:27.339Z,19.00
2018-05-05T20:09:54.803Z,19.00
2018-05-05T20:12:22.273Z,19.00
2018-05-05T20:14:49.716Z,19.00
2018-05-05T20:17:17.163Z,19.00
2018-05-05T20:19:44.614Z,19.00
2018-05-05T20:22:12.247Z,18.90
2018-05-05T20:24:39.659Z,18.90
2018-05-05T20:27:07.107Z,18.70
2018-05-05T20:29:34.559Z,18.60
2018-05-05T20:32:02.005Z,18.60
2018-05-05T20:34:29.557Z,18.50
2018-05-05T20:36:56.975Z,18.50
2018-05-05T20:39:24.402Z,18.50
2018-05-05T20:41:51.855Z,18.40
2018-05-05T20:44:19.326Z,18.30
2018-05-05T20:46:46.747Z,18.20
2018-05-05T20:49:14.293Z,18.10
2018-05-05T20:51:42.513Z,18.00
2018-05-05T20:54:09.967Z,18.00
2018-05-05T20:56:37.415Z,18.00
2018-05-05T20:59:04.904Z,18.00
2018-05-05T21:01:32.359Z,17.90
2018-05-05T21:03:59.797Z,17.90
2018-05-05T21:06:27.232Z,17.70
2018-05-05T21:08:54.658Z,17.70
2018-05-05T21:11:22.931Z,17.50
2018-05-05T21:13:51.173Z,17.40
2018-05-05T21:16:18.690Z,17.40
2018-05-05T21:18:46.184Z,17.30
2018-05-05T21:21:13.619Z,17.20
2018-05-05T21:23:41.103Z,17.20
2018-05-05T21:26:08.567Z,17.20
2018-05-05T21:28:37.559Z,17.10
2018-05-05T21:31:05.917Z,17.10
2018-05-05T21:33:33.419Z,17.10
2018-05-05T21:36:03.380Z,17.00
2018-05-05T21:38:30.875Z,17.00
2018-05-05T21:40:58.328Z,17.00
2018-05-05T21:43:25.852Z,16.90
2018-05-05T21:45:53.301Z,16.90
2018-05-05T21:48:21.668Z,16.70
2018-05-05T21:50:49.835Z,16.70
2018-05-05T21:53:19.454Z,16.30
2018-05-05T21:55:46.899Z,16.30
2018-05-05T21:58:15.088Z,15.90
2018-05-05T22:00:42.523Z,15.90
2018-05-05T22:03:10.823Z,15.80
2018-05-05T22:05:38.257Z,15.70
2018-05-05T22:08:06.487Z,15.70
2018-05-05T22:10:33.924Z,15.60
2018-05-05T22:13:01.351Z,15.60
2018-05-05T22:15:29.571Z,15.50
2018-05-05T22:17:57.013Z,15.50
2018-05-05T22:20:24.452Z,15.50
2018-05-05T22:22:51.983Z,15.50
2018-05-05T22:25:20.191Z,15.40
2018-05-05T22:27:47.638Z,15.40
2018-05-05T22:30:15.131Z,15.40
2018-05-05T22:32:43.978Z,15.10
2018-05-05T22:35:12.208Z,14.80
2018-05-05T22:37:40.177Z,14.70
2018-05-05T22:40:07.616Z,14.70
2018-05-05T22:42:35.057Z,14.70
2018-05-05T22:45:02.499Z,14.60
2018-05-05T22:47:30.948Z,14.50
2018-05-05T22:49:58.417Z,14.30
2018-05-05T22:52:26.616Z,14.10
2018-05-05T22:54:54.067Z,14.10
2018-05-05T22:57:22.639Z,14.10
2018-05-05T22:59:50.868Z,14.10
2018-05-05T23:02:18.298Z,14.10
2018-05-05T23:04:45.758Z,14.10
2018-05-05T23:07:13.231Z,14.00
2018-05-05T23:09:40.692Z,14.00
2018-05-05T23:12:08.157Z,13.90
2018-05-05T23:14:35.596Z,13.80
2018-05-05T23:17:03.091Z,13.70
2018-05-05T23:19:30.578Z,13.60
2018-05-05T23:21:58.791Z,13.40
2018-05-05T23:24:26.408Z,13.40
2018-05-05T23:26:54.679Z,13.30
2018-05-05T23:29:22.108Z,13.30
2018-05-05T23:31:49.563Z,13.20
2018-05-05T23:34:17.110Z,13.10
2018-05-05T23:36:44.584Z,13.10
2018-05-05T23:39:12.043Z,13.10
2018-05-05T23:41:39.493Z,13.10
2018-05-05T23:44:06.941Z,12.80
2018-05-05T23:46:34.506Z,12.70
2018-05-05T23:49:01.960Z,12.50
2018-05-05T23:51:29.502Z,12.40
2018-05-05T23:53:56.974Z,12.40
2018-05-05T23:56:24.434Z,12.30
2018-05-05T23:58:51.866Z,12.40
